Time;durP1;ratioP1;P1;durP2;ratioP2;P2;SDS_P1;SDS_P2;PMS_P1;PMS_P2;Temp;Humidity;BMP_temperature;BMP_pressure;BME280_temperature;BME280_humidity;BME280_pressure;Samples;Min_cycle;Max_cycle;Signal;HPM_P1;HPM_P2
2023/09/22 00:01:43;;;;;;;11.63;7.20;;;;;;;15.53;100.00;99721.47;5020332;28;20052;-63
2023/09/22 00:04:32;;;;;;;9.25;6.82;;;;;;;15.52;100.00;99722.59;5028226;28;20045;-64
2023/09/22 00:07:20;;;;;;;9.48;6.53;;;;;;;15.50;100.00;99724.88;5051590;28;20041;-64
2023/09/22 00:10:09;;;;;;;9.13;6.63;;;;;;;15.49;100.00;99723.25;5036218;28;20243;-63
2023/09/22 00:12:57;;;;;;;13.20;5.82;;;;;;;15.48;100.00;99732.63;5069584;28;20084;-65
2023/09/22 00:15:45;;;;;;;11.35;6.05;;;;;;;15.45;100.00;99733.28;5015263;28;20068;-64
2023/09/22 00:18:33;;;;;;;9.75;6.68;;;;;;;15.44;100.00;99734.41;5030804;28;20501;-63
2023/09/22 00:21:21;;;;;;;10.55;6.05;;;;;;;15.44;100.00;99731.66;5031688;28;20529;-64
2023/09/22 00:24:09;;;;;;;9.15;6.57;;;;;;;15.41;100.00;99730.38;5041560;28;20412;-64
2023/09/22 00:26:57;;;;;;;8.85;6.30;;;;;;;15.33;100.00;99733.97;5037530;28;20049;-64
2023/09/22 00:29:45;;;;;;;9.00;6.18;;;;;;;15.28;100.00;99728.66;5030401;28;20110;-64
2023/09/22 00:32:34;;;;;;;10.35;6.57;;;;;;;15.26;100.00;99734.44;5016331;28;20099;-64
2023/09/22 00:35:22;;;;;;;8.80;5.95;;;;;;;15.27;100.00;99733.34;5052555;28;20073;-64
2023/09/22 00:38:10;;;;;;;8.63;6.00;;;;;;;15.26;100.00;99719.94;5053784;28;20040;-64
2023/09/22 00:40:59;;;;;;;8.90;6.05;;;;;;;15.25;100.00;99723.78;5038753;28;20048;-64
2023/09/22 00:43:47;;;;;;;11.15;5.93;;;;;;;15.24;100.00;99727.69;5053390;28;20198;-65
2023/09/22 00:46:36;;;;;;;8.30;6.10;;;;;;;15.24;100.00;99728.47;5065398;28;20258;-62
2023/09/22 00:49:24;;;;;;;11.10;5.60;;;;;;;15.21;100.00;99737.38;5018176;28;20136;-64
2023/09/22 00:52:13;;;;;;;8.10;5.32;;;;;;;15.20;100.00;99744.00;5006660;28;20124;-64
2023/09/22 00:55:01;;;;;;;9.02;5.90;;;;;;;15.19;100.00;99734.13;5033554;28;20057;-65
2023/09/22 00:57:49;;;;;;;10.50;6.05;;;;;;;15.13;100.00;99733.50;5025433;28;20125;-64
2023/09/22 01:00:39;;;;;;;8.63;4.97;;;;;;;15.12;100.00;99736.56;5011848;28;20045;-65
2023/09/22 01:03:29;;;;;;;8.82;5.15;;;;;;;15.09;100.00;99745.47;5018642;28;20425;-65
2023/09/22 01:06:18;;;;;;;9.30;4.95;;;;;;;15.08;100.00;99732.84;5039865;28;20131;-65
2023/09/22 01:09:07;;;;;;;10.45;5.07;;;;;;;15.06;100.00;99727.72;5020901;28;20037;-66
2023/09/22 01:11:55;;;;;;;11.43;5.03;;;;;;;15.03;100.00;99727.53;5034663;28;20049;-65
2023/09/22 01:14:44;;;;;;;8.20;5.30;;;;;;;15.01;100.00;99736.13;5052068;28;20511;-66
2023/09/22 01:17:31;;;;;;;8.38;4.90;;;;;;;15.02;100.00;99736.91;5037637;28;20052;-65
2023/09/22 01:20:22;;;;;;;7.40;4.75;;;;;;;15.04;100.00;99735.47;5048306;28;20152;-65
2023/09/22 01:23:12;;;;;;;9.38;5.22;;;;;;;15.06;100.00;99746.13;5072420;28;20059;-65
2023/09/22 01:26:00;;;;;;;7.78;4.78;;;;;;;15.04;100.00;99740.16;5071039;28;20036;-65
2023/09/22 01:28:49;;;;;;;8.38;5.00;;;;;;;15.02;100.00;99739.66;5042671;28;20040;-64
2023/09/22 01:31:37;;;;;;;10.75;5.10;;;;;;;15.01;100.00;99738.03;5055214;28;20103;-65
2023/09/22 01:34:25;;;;;;;9.90;5.35;;;;;;;15.01;100.00;99738.03;5054804;28;20057;-65
2023/09/22 01:37:13;;;;;;;8.02;5.20;;;;;;;14.98;100.00;99738.69;5038704;28;20139;-65
2023/09/22 01:40:01;;;;;;;9.82;5.53;;;;;;;14.98;100.00;99739.47;5037505;28;20095;-65
2023/09/22 01:42:49;;;;;;;9.48;5.85;;;;;;;14.98;100.00;99735.94;5036975;28;20049;-65
2023/09/22 01:45:38;;;;;;;10.82;6.03;;;;;;;14.98;100.00;99734.00;5032139;28;20054;-65
2023/09/22 01:48:26;;;;;;;10.65;6.05;;;;;;;15.00;100.00;99731.75;5039930;28;20072;-65
2023/09/22 01:51:15;;;;;;;8.38;5.75;;;;;;;14.93;100.00;99738.84;5051723;28;20037;-65
2023/09/22 01:54:03;;;;;;;11.15;6.38;;;;;;;14.87;100.00;99730.00;5073849;28;20389;-65
2023/09/22 01:56:51;;;;;;;10.95;6.57;;;;;;;14.82;100.00;99728.22;5048801;28;20053;-65
2023/09/22 01:59:39;;;;;;;10.85;5.95;;;;;;;14.80;100.00;99729.66;5070317;28;20055;-64
2023/09/22 02:02:27;;;;;;;10.45;6.30;;;;;;;14.81;100.00;99736.75;5058536;28;20048;-64
2023/09/22 02:05:15;;;;;;;9.90;6.07;;;;;;;14.81;100.00;99742.25;5059502;28;20506;-64
2023/09/22 02:08:04;;;;;;;12.73;6.55;;;;;;;14.78;100.00;99740.94;5057325;28;20495;-64
2023/09/22 02:10:52;;;;;;;10.05;6.75;;;;;;;14.74;100.00;99742.72;5060250;28;20054;-64
2023/09/22 02:13:40;;;;;;;10.77;6.45;;;;;;;14.75;100.00;99738.88;5073880;28;20056;-64
2023/09/22 02:16:29;;;;;;;11.18;6.80;;;;;;;14.76;100.00;99736.94;5058227;28;20059;-65
2023/09/22 02:19:17;;;;;;;11.48;6.70;;;;;;;14.78;100.00;99734.66;5072859;28;20049;-66
2023/09/22 02:22:05;;;;;;;10.95;6.85;;;;;;;14.75;100.00;99738.88;5076982;28;20043;-65
2023/09/22 02:24:53;;;;;;;10.85;6.85;;;;;;;14.69;100.00;99734.66;5078284;28;20130;-64
2023/09/22 02:27:42;;;;;;;9.27;6.18;;;;;;;14.63;100.00;99734.03;5084205;28;20133;-64
2023/09/22 02:30:30;;;;;;;11.75;6.47;;;;;;;14.68;100.00;99738.53;5072958;28;20067;-65
2023/09/22 02:33:18;;;;;;;11.93;6.68;;;;;;;14.74;100.00;99748.19;5073528;28;20489;-64
2023/09/22 02:36:07;;;;;;;11.98;6.90;;;;;;;14.77;100.00;99747.56;5058722;28;20139;-64
2023/09/22 02:38:56;;;;;;;11.02;6.35;;;;;;;14.79;100.00;99744.50;5041139;28;20607;-65
2023/09/22 02:41:44;;;;;;;10.82;7.00;;;;;;;14.81;100.00;99750.47;5013085;28;20059;-65
2023/09/22 02:44:32;;;;;;;10.57;6.55;;;;;;;14.79;100.00;99748.06;5052081;28;20053;-64
2023/09/22 02:47:20;;;;;;;11.10;6.80;;;;;;;14.77;100.00;99741.25;5040916;28;20060;-64
2023/09/22 02:50:12;;;;;;;11.73;7.13;;;;;;;14.74;100.00;99737.22;5072548;28;20056;-64
2023/09/22 02:53:03;;;;;;;12.05;7.45;;;;;;;14.74;100.00;99737.22;5057734;28;20045;-66
2023/09/22 02:55:52;;;;;;;13.68;7.18;;;;;;;14.72;100.00;99739.50;5068353;28;20056;-65
2023/09/22 02:58:40;;;;;;;12.50;7.30;;;;;;;14.74;100.00;99736.44;5091904;28;20132;-65
2023/09/22 03:01:28;;;;;;;11.85;6.72;;;;;;;14.74;100.00;99736.44;5058426;28;20102;-65
2023/09/22 03:04:16;;;;;;;11.65;7.28;;;;;;;14.74;100.00;99742.72;5071781;28;20044;-64
2023/09/22 03:07:04;;;;;;;12.90;7.30;;;;;;;14.75;100.00;99744.34;5074311;28;20043;-64
2023/09/22 03:09:52;;;;;;;12.75;7.75;;;;;;;14.75;100.00;99741.59;5057946;28;20048;-64
2023/09/22 03:12:42;;;;;;;13.52;7.85;;;;;;;14.74;100.00;99736.44;5037305;28;20053;-66
2023/09/22 03:15:30;;;;;;;10.85;6.93;;;;;;;14.65;100.00;99728.22;5025577;28;20110;-65
2023/09/22 03:18:19;;;;;;;12.00;7.13;;;;;;;14.66;100.00;99724.34;5074237;28;20096;-65
2023/09/22 03:21:07;;;;;;;13.50;6.68;;;;;;;14.70;100.00;99733.53;5063553;28;20116;-65
2023/09/22 03:23:56;;;;;;;11.65;7.18;;;;;;;14.67;100.00;99735.00;5075635;28;20193;-65
2023/09/22 03:26:46;;;;;;;14.23;7.60;;;;;;;14.68;100.00;99733.06;5041129;28;20053;-64
2023/09/22 03:29:34;;;;;;;13.32;7.40;;;;;;;14.64;100.00;99735.63;5045635;28;20421;-64
2023/09/22 03:32:22;;;;;;;10.55;6.65;;;;;;;14.62;100.00;99728.84;5071880;28;20041;-66
2023/09/22 03:35:11;;;;;;;11.30;6.63;;;;;;;14.59;100.00;99741.25;5072859;28;20175;-64
2023/09/22 03:37:59;;;;;;;12.13;7.13;;;;;;;14.57;100.00;99740.78;5053712;28;20048;-66
2023/09/22 03:40:48;;;;;;;10.07;6.53;;;;;;;14.53;100.00;99738.97;5045111;28;20469;-64
2023/09/22 03:43:36;;;;;;;11.45;6.20;;;;;;;14.46;100.00;99739.47;5058645;28;20048;-64
2023/09/22 03:46:24;;;;;;;12.40;6.38;;;;;;;14.44;100.00;99739.78;5056663;28;20048;-65
2023/09/22 03:49:12;;;;;;;12.95;6.50;;;;;;;14.41;100.00;99740.41;5074291;28;20060;-65
2023/09/22 03:52:01;;;;;;;11.00;5.97;;;;;;;14.43;100.00;99743.66;5017939;28;20051;-65
2023/09/22 03:54:50;;;;;;;11.98;5.78;;;;;;;14.45;100.00;99740.56;5070239;28;20056;-65
2023/09/22 03:57:39;;;;;;;11.23;6.10;;;;;;;14.46;100.00;99747.69;5040086;28;20535;-65
2023/09/22 04:00:28;;;;;;;14.10;5.80;;;;;;;14.46;100.00;99743.00;5052634;28;20087;-65
2023/09/22 04:03:18;;;;;;;11.70;5.63;;;;;;;14.45;100.00;99751.53;5035109;28;20469;-66
2023/09/22 04:06:06;;;;;;;9.30;4.97;;;;;;;14.35;100.00;99741.69;5038957;28;20603;-64
2023/09/22 04:08:55;;;;;;;9.57;5.28;;;;;;;14.35;100.00;99741.69;5056653;28;20141;-64
2023/09/22 04:11:42;;;;;;;9.27;5.20;;;;;;;14.37;100.00;99744.91;5049924;28;20102;-64
2023/09/22 04:14:30;;;;;;;11.88;5.22;;;;;;;14.34;100.00;99744.75;5047925;28;20419;-64
2023/09/22 04:17:19;;;;;;;8.13;4.13;;;;;;;14.33;100.00;99746.69;5092172;28;20043;-64
2023/09/22 04:20:09;;;;;;;8.55;4.25;;;;;;;14.36;100.00;99743.31;5095412;28;20054;-65
2023/09/22 04:22:58;;;;;;;10.68;4.80;;;;;;;14.41;100.00;99750.59;5051915;28;20488;-65
2023/09/22 04:25:47;;;;;;;8.95;4.32;;;;;;;14.42;100.00;99752.19;5075620;28;20044;-65
2023/09/22 04:28:37;;;;;;;7.55;4.10;;;;;;;14.43;100.00;99753.78;5039760;28;20049;-63
2023/09/22 04:31:25;;;;;;;7.32;3.67;;;;;;;14.43;100.00;99760.09;5055223;28;20041;-65
2023/09/22 04:34:14;;;;;;;6.20;3.75;;;;;;;14.43;100.00;99754.63;5064120;28;20086;-64
2023/09/22 04:37:04;;;;;;;8.95;3.88;;;;;;;14.45;100.00;99757.81;5075838;28;20041;-64
2023/09/22 04:39:54;;;;;;;7.47;3.72;;;;;;;14.47;100.00;99755.56;5074673;28;20412;-64
2023/09/22 04:42:42;;;;;;;7.75;3.70;;;;;;;14.44;100.00;99760.91;5045971;28;20052;-66
2023/09/22 04:45:30;;;;;;;7.32;3.25;;;;;;;14.42;100.00;99758.47;5060170;28;20052;-65
2023/09/22 04:48:18;;;;;;;8.23;3.78;;;;;;;14.43;100.00;99756.53;5053437;28;20584;-65
2023/09/22 04:51:06;;;;;;;6.65;3.33;;;;;;;14.41;100.00;99765.09;5050394;28;20048;-64
2023/09/22 04:53:54;;;;;;;7.70;3.20;;;;;;;14.41;100.00;99761.53;5073503;28;20056;-66
2023/09/22 04:56:43;;;;;;;6.95;3.22;;;;;;;14.39;100.00;99763.78;5074244;28;20047;-64
2023/09/22 04:59:31;;;;;;;5.40;2.90;;;;;;;14.40;100.00;99760.72;5037077;28;20045;-64
2023/09/22 05:02:19;;;;;;;6.78;3.25;;;;;;;14.41;100.00;99756.88;5056039;28;20037;-65
2023/09/22 05:05:08;;;;;;;5.38;2.90;;;;;;;14.46;100.00;99761.38;5061672;28;20079;-64
2023/09/22 05:07:56;;;;;;;5.47;2.80;;;;;;;14.45;100.00;99762.50;5061151;28;20054;-64
2023/09/22 05:10:50;;;;;;;7.88;2.97;;;;;;;14.45;100.00;99773.47;5059692;28;20045;-65
2023/09/22 05:13:37;;;;;;;8.23;3.15;;;;;;;14.41;100.00;99778.78;5062597;28;20124;-64
2023/09/22 05:16:25;;;;;;;6.65;3.40;;;;;;;14.40;100.00;99779.91;5086154;28;20055;-64
2023/09/22 05:19:14;;;;;;;7.13;3.40;;;;;;;14.38;100.00;99782.19;5093314;28;20097;-64
2023/09/22 05:22:03;;;;;;;7.05;3.17;;;;;;;14.35;100.00;99787.47;5060498;28;20045;-66
2023/09/22 05:24:51;;;;;;;7.40;2.95;;;;;;;14.31;100.00;99790.06;5071816;28;20139;-65
2023/09/22 05:27:41;;;;;;;5.47;2.95;;;;;;;14.28;100.00;99790.66;5065807;28;20446;-65
2023/09/22 05:30:31;;;;;;;7.03;3.00;;;;;;;14.25;100.00;99797.59;5059244;28;20574;-66
2023/09/22 05:33:19;;;;;;;9.25;3.10;;;;;;;14.22;100.00;99797.44;5058211;28;20503;-64
2023/09/22 05:36:07;;;;;;;8.88;3.13;;;;;;;14.21;100.00;99801.28;5058801;28;20052;-65
2023/09/22 05:38:56;;;;;;;7.35;3.10;;;;;;;14.21;100.00;99804.81;5072349;28;20503;-65
2023/09/22 05:41:48;;;;;;;8.52;3.47;;;;;;;14.19;100.00;99807.09;5073507;28;20050;-65
2023/09/22 05:44:36;;;;;;;7.80;3.22;;;;;;;14.21;100.00;99814.97;5072100;28;20084;-65
2023/09/22 05:47:25;;;;;;;7.15;2.80;;;;;;;14.21;100.00;99812.25;5073386;28;20145;-65
2023/09/22 05:50:13;;;;;;;8.27;2.90;;;;;;;14.18;100.00;99819.16;5055166;28;20106;-65
2023/09/22 05:53:07;;;;;;;8.20;2.97;;;;;;;14.15;100.00;99824.47;5058838;28;20071;-66
2023/09/22 05:56:10;;;;;;;7.07;3.08;;;;;;;14.16;100.00;99826.09;5059631;28;20081;-65
2023/09/22 05:58:58;;;;;;;8.95;2.85;;;;;;;14.16;100.00;99831.56;5042001;28;20045;-65
2023/09/22 06:01:47;;;;;;;8.05;2.83;;;;;;;14.19;100.00;99837.25;5040052;28;20057;-65
2023/09/22 06:04:35;;;;;;;5.72;2.55;;;;;;;14.19;100.00;99839.97;5074141;28;20040;-65
2023/09/22 06:07:23;;;;;;;6.45;2.75;;;;;;;14.21;100.00;99845.13;5056907;28;20048;-65
2023/09/22 06:10:13;;;;;;;9.23;3.10;;;;;;;14.23;100.00;99837.41;5057482;28;20078;-64
2023/09/22 06:13:02;;;;;;;8.60;2.85;;;;;;;14.23;100.00;99838.19;5073328;28;20510;-64
2023/09/22 06:15:51;;;;;;;8.55;2.85;;;;;;;14.25;100.00;99829.69;5074431;28;20051;-65
2023/09/22 06:18:40;;;;;;;7.40;3.13;;;;;;;14.25;100.00;99835.97;5063365;28;20043;-66
2023/09/22 06:21:32;;;;;;;5.78;2.42;;;;;;;14.27;100.00;99849.34;5054123;28;20045;-65
2023/09/22 06:24:20;;;;;;;4.20;2.42;;;;;;;14.26;100.00;99834.84;5046398;28;20053;-65
2023/09/22 06:27:08;;;;;;;6.65;2.50;;;;;;;14.25;100.00;99848.84;5071206;28;20441;-65
2023/09/22 06:29:56;;;;;;;5.60;2.80;;;;;;;14.30;100.00;99848.72;5056376;28;20200;-64
2023/09/22 06:32:45;;;;;;;3.10;2.08;;;;;;;14.35;100.00;99854.03;5071401;28;20131;-65
2023/09/22 06:35:34;;;;;;;7.82;2.70;;;;;;;14.37;100.00;99842.78;5057558;28;20126;-64
2023/09/22 06:38:22;;;;;;;4.80;2.10;;;;;;;14.34;100.00;99849.69;5081783;28;20518;-65
2023/09/22 06:41:17;;;;;;;4.75;2.40;;;;;;;14.33;100.00;99848.06;5062870;28;20048;-65
2023/09/22 06:44:06;;;;;;;5.45;2.38;;;;;;;14.39;100.00;99849.56;5060209;28;20068;-65
2023/09/22 06:46:54;;;;;;;5.25;2.55;;;;;;;14.37;100.00;99851.78;5044070;28;20495;-64
2023/09/22 06:49:42;;;;;;;5.10;2.55;;;;;;;14.40;100.00;99853.88;5052487;28;20423;-64
2023/09/22 06:52:30;;;;;;;6.07;2.50;;;;;;;14.40;100.00;99858.56;5053678;28;20052;-64
2023/09/22 06:55:18;;;;;;;6.63;2.67;;;;;;;14.38;100.00;99861.66;5052335;28;20128;-64
2023/09/22 06:58:07;;;;;;;3.88;2.13;;;;;;;14.45;100.00;99861.97;5070340;28;20045;-64
2023/09/22 07:00:56;;;;;;;4.25;2.17;;;;;;;14.54;100.00;99863.97;5059911;28;20131;-65
2023/09/22 07:03:46;;;;;;;4.15;2.00;;;;;;;14.54;100.00;99861.22;5072250;28;20044;-65
2023/09/22 07:06:36;;;;;;;3.75;1.77;;;;;;;14.58;100.00;99867.72;5058749;28;20412;-65
2023/09/22 07:09:24;;;;;;;3.67;1.70;;;;;;;14.75;100.00;99856.78;5056986;28;20103;-64
2023/09/22 07:12:12;;;;;;;6.55;2.33;;;;;;;14.78;100.00;99872.56;5073710;28;20086;-64
2023/09/22 07:15:00;;;;;;;7.30;2.53;;;;;;;14.63;100.00;99871.09;5073503;28;20445;-65
2023/09/22 07:17:48;;;;;;;11.75;3.75;;;;;;;14.65;100.00;99873.53;5052048;28;20053;-65
2023/09/22 07:20:37;;;;;;;14.18;4.38;;;;;;;14.78;100.00;99869.84;5048175;28;20501;-65
2023/09/22 07:23:26;;;;;;;9.68;3.28;;;;;;;14.74;100.00;99879.03;5048938;28;20044;-66
2023/09/22 07:26:14;;;;;;;12.20;3.90;;;;;;;14.68;100.00;99889.34;5072088;28;20505;-64
2023/09/22 07:29:02;;;;;;;13.48;4.25;;;;;;;14.75;100.00;99892.41;5085259;28;20049;-66
2023/09/22 07:31:50;;;;;;;13.35;3.38;;;;;;;14.72;100.00;99898.56;5045343;28;20052;-66
2023/09/22 07:34:38;;;;;;;6.13;2.30;;;;;;;14.67;100.00;99906.91;5071824;28;20044;-65
2023/09/22 07:37:26;;;;;;;9.05;3.28;;;;;;;14.55;100.00;99907.53;5067232;28;20571;-65
2023/09/22 07:40:14;;;;;;;8.88;2.80;;;;;;;14.52;100.00;99921.00;5043184;28;20059;-65
2023/09/22 07:43:04;;;;;;;5.43;2.10;;;;;;;14.44;100.00;99926.16;5073211;28;20044;-66
2023/09/22 07:45:52;;;;;;;8.48;2.85;;;;;;;14.54;100.00;99924.28;5073882;28;20583;-65
2023/09/22 07:48:40;;;;;;;12.63;4.05;;;;;;;14.66;100.00;99921.75;5058585;28;20047;-64
2023/09/22 07:51:28;;;;;;;20.83;5.78;;;;;;;14.72;100.00;99930.63;5052070;28;20136;-64
2023/09/22 07:54:16;;;;;;;11.50;3.33;;;;;;;14.87;100.00;99911.81;5016957;28;20053;-64
2023/09/22 07:57:04;;;;;;;14.35;4.45;;;;;;;14.79;100.00;99930.97;5031757;28;20386;-64
2023/09/22 07:59:54;;;;;;;16.73;3.83;;;;;;;14.81;100.00;99931.47;5018229;28;20076;-66
2023/09/22 08:02:42;;;;;;;9.90;2.92;;;;;;;14.93;100.00;99947.31;5018686;28;20521;-65
2023/09/22 08:05:35;;;;;;;14.70;4.13;;;;;;;14.98;100.00;99934.25;5004444;28;20041;-64
2023/09/22 08:08:24;;;;;;;6.90;2.63;;;;;;;15.14;100.00;99931.88;5032326;28;20053;-65
2023/09/22 08:11:12;;;;;;;10.88;3.17;;;;;;;15.19;100.00;99934.44;5006202;28;20098;-64
2023/09/22 08:14:01;;;;;;;8.43;2.88;;;;;;;15.06;100.00;99936.22;5032548;28;20549;-65
2023/09/22 08:16:49;;;;;;;9.23;3.47;;;;;;;15.02;100.00;99939.91;5033118;28;20049;-65
2023/09/22 08:19:37;;;;;;;7.75;2.65;;;;;;;14.96;100.00;99952.16;5018616;28;20045;-66
2023/09/22 08:22:26;;;;;;;12.68;3.70;;;;;;;15.00;100.00;99959.44;5032505;28;20052;-66
2023/09/22 08:25:14;;;;;;;6.85;2.53;;;;;;;14.99;100.00;99963.31;5032616;28;20056;-65
2023/09/22 08:28:03;;;;;;;4.25;2.08;;;;;;;14.93;100.00;99961.03;5031764;28;20049;-65
2023/09/22 08:30:56;;;;;;;7.15;2.38;;;;;;;14.93;100.00;99961.03;5019809;28;20046;-65
2023/09/22 08:33:44;;;;;;;6.95;2.88;;;;;;;14.97;100.00;99967.50;5023877;28;20049;-66
2023/09/22 08:36:33;;;;;;;10.10;3.65;;;;;;;15.02;100.00;99968.16;5051676;28;20049;-65
2023/09/22 08:39:21;;;;;;;10.23;3.78;;;;;;;15.18;100.00;99963.03;5037138;28;20052;-65
2023/09/22 08:42:09;;;;;;;10.15;3.30;;;;;;;15.25;100.00;99963.38;5034626;28;20052;-65
2023/09/22 08:44:57;;;;;;;9.43;3.78;;;;;;;15.28;100.00;99965.47;5024193;28;20045;-65
2023/09/22 08:47:47;;;;;;;13.55;4.13;;;;;;;15.30;100.00;99968.69;5051427;28;20049;-65
2023/09/22 08:50:38;;;;;;;7.70;3.08;;;;;;;15.29;100.00;99964.31;5049959;28;20065;-67
2023/09/22 08:53:29;;;;;;;8.80;3.22;;;;;;;15.38;100.00;99963.53;5061965;28;20083;-66
2023/09/22 08:56:18;;;;;;;7.85;2.80;;;;;;;15.38;100.00;99964.34;5062221;28;20048;-64
2023/09/22 08:59:09;;;;;;;5.95;2.38;;;;;;;15.34;100.00;99963.38;5052026;28;20044;-64
2023/09/22 09:01:58;;;;;;;9.15;3.60;;;;;;;15.36;100.00;99974.03;5047569;28;20107;-64
2023/09/22 09:04:46;;;;;;;7.50;2.42;;;;;;;15.37;100.00;99975.63;5053473;28;20049;-65
2023/09/22 09:07:34;;;;;;;8.73;2.95;;;;;;;15.40;100.00;99980.50;5072135;28;20408;-64
2023/09/22 09:10:33;;;;;;;7.43;2.65;;;;;;;15.35;100.00;99984.22;5059896;28;20085;-65
2023/09/22 09:13:27;;;;;;;5.63;2.15;;;;;;;15.47;100.00;99984.38;5071526;28;20058;-63
2023/09/22 09:16:29;;;;;;;8.32;2.88;;;;;;;15.57;100.00;99980.53;5061676;28;20138;-65
2023/09/22 09:19:17;;;;;;;6.75;2.47;;;;;;;15.54;100.00;99979.22;5057950;28;20063;-65
2023/09/22 09:22:06;;;;;;;13.50;3.80;;;;;;;15.68;100.00;99981.81;5054470;28;20421;-65
2023/09/22 09:24:54;;;;;;;7.93;2.70;;;;;;;15.59;100.00;99983.75;5039890;28;20045;-65
2023/09/22 09:27:43;;;;;;;6.55;2.38;;;;;;;15.59;100.00;99986.50;5041212;28;20056;-65
2023/09/22 09:30:32;;;;;;;6.93;2.40;;;;;;;15.46;100.00;99984.69;5046509;28;20052;-65
2023/09/22 09:33:27;;;;;;;5.63;2.00;;;;;;;15.37;100.00;99986.63;5072721;28;20119;-65
2023/09/22 09:36:16;;;;;;;4.13;2.30;;;;;;;15.46;100.00;99988.25;5074820;28;20123;-65
2023/09/22 09:39:04;;;;;;;6.63;2.55;;;;;;;15.60;100.00;99990.84;5075350;28;20119;-65
2023/09/22 09:41:52;;;;;;;8.27;2.92;;;;;;;15.58;100.00;99990.34;5073784;28;20055;-65
2023/09/22 09:44:43;;;;;;;7.20;2.58;;;;;;;15.60;100.00;99990.03;5073833;28;20055;-66
2023/09/22 09:47:35;;;;;;;6.03;2.28;;;;;;;15.61;100.00;99994.41;5073969;28;20051;-66
2023/09/22 09:50:24;;;;;;;6.07;2.42;;;;;;;15.59;100.00;100002.97;5056871;28;20449;-65
2023/09/22 09:53:43;;;;;;;8.57;2.72;;;;;;;15.67;100.00;99991.19;5074167;28;20473;-66
2023/09/22 09:56:33;;;;;;;4.63;2.28;;;;;;;15.48;100.00;100001.66;5068094;28;20048;-66
2023/09/22 09:59:22;;;;;;;6.05;1.83;;;;;;;15.41;100.00;99999.38;5068091;28;20044;-66
2023/09/22 10:02:11;;;;;;;3.38;1.88;;;;;;;15.38;100.00;100002.78;5062917;28;20147;-65
2023/09/22 10:05:07;;;;;;;6.18;1.90;;;;;;;15.38;99.59;99999.22;5058994;28;20125;-66
2023/09/22 10:07:58;;;;;;;7.53;2.65;;;;;;;15.57;100.00;99998.94;5049551;28;20044;-66
2023/09/22 10:10:56;;;;;;;6.68;3.03;;;;;;;15.66;100.00;99989.56;5068738;28;20040;-66
2023/09/22 10:13:44;;;;;;;3.72;1.80;;;;;;;15.72;98.62;99985.56;5043644;28;20087;-67
2023/09/22 10:16:32;;;;;;;3.67;1.58;;;;;;;15.73;97.11;99980.88;5054309;28;20131;-65
2023/09/22 10:19:41;;;;;;;5.00;1.65;;;;;;;15.74;97.05;99988.78;5039880;28;20053;-66
2023/09/22 10:22:32;;;;;;;2.80;1.73;;;;;;;15.76;95.54;99983.78;5052274;28;20040;-66
2023/09/22 10:25:21;;;;;;;7.90;1.85;;;;;;;15.75;93.87;99979.44;5059369;28;20056;-65
2023/09/22 10:28:28;;;;;;;3.10;1.63;;;;;;;15.75;95.98;99979.44;5072348;28;20067;-65
2023/09/22 10:31:17;;;;;;;4.78;2.70;;;;;;;15.77;96.34;99979.88;5072733;28;20048;-64
2023/09/22 10:34:46;;;;;;;5.55;2.55;;;;;;;15.84;96.94;99990.41;5052289;28;20068;-65
2023/09/22 10:37:35;;;;;;;19.77;10.32;;;;;;;15.93;97.46;99980.22;4704527;28;10000210;-65
2023/09/22 10:40:24;;;;;;;29.77;16.67;;;;;;;15.95;97.50;99982.66;5068523;28;20052;-65
2023/09/22 10:43:13;;;;;;;3.03;2.05;;;;;;;15.90;93.92;99989.13;5045851;28;20080;-65
2023/09/22 10:46:02;;;;;;;9.32;4.80;;;;;;;15.85;94.04;99982.97;5049389;28;20090;-66
2023/09/22 10:48:50;;;;;;;27.80;16.40;;;;;;;15.87;96.32;99991.69;5049364;28;20755;-66
2023/09/22 10:51:43;;;;;;;6.78;1.80;;;;;;;15.82;94.27;99983.63;5072603;28;20139;-66
2023/09/22 10:54:42;;;;;;;26.63;16.23;;;;;;;15.87;96.04;99980.69;5068288;28;20087;-65
2023/09/22 10:57:30;;;;;;;15.82;8.05;;;;;;;15.95;95.26;99982.66;5067929;28;20410;-65
2023/09/22 11:00:18;;;;;;;34.80;21.77;;;;;;;16.08;95.72;99984.41;5076922;28;20153;-65
2023/09/22 11:03:14;;;;;;;13.05;7.32;;;;;;;16.25;96.82;99982.75;5084939;28;20047;-65
2023/09/22 11:06:06;;;;;;;16.83;9.75;;;;;;;16.32;96.29;99985.81;5048818;28;20064;-66
2023/09/22 11:08:55;;;;;;;18.95;10.70;;;;;;;16.41;95.07;99989.34;5038737;28;20063;-65
2023/09/22 11:11:45;;;;;;;89.30;56.15;;;;;;;16.46;98.76;99991.94;5031529;28;20044;-66
2023/09/22 11:14:33;;;;;;;190.80;111.38;;;;;;;16.55;100.00;99987.22;5065233;28;20044;-63
2023/09/22 11:17:22;;;;;;;23.85;14.48;;;;;;;16.53;93.88;99986.72;5067618;28;20051;-65
2023/09/22 11:20:22;;;;;;;10.52;4.53;;;;;;;16.52;91.36;99996.09;5054230;28;20526;-64
2023/09/22 11:23:10;;;;;;;20.10;11.23;;;;;;;16.50;92.74;100003.06;5053951;28;20048;-65
2023/09/22 11:26:09;;;;;;;4.45;2.30;;;;;;;16.44;91.31;100005.19;5065944;28;20528;-64
2023/09/22 11:29:01;;;;;;;12.07;6.32;;;;;;;16.42;90.43;100009.41;5047195;28;20047;-65
2023/09/22 11:31:50;;;;;;;13.75;6.80;;;;;;;16.38;89.09;100012.00;5067316;28;20141;-65
2023/09/22 11:34:48;;;;;;;8.25;3.92;;;;;;;16.35;89.00;100010.69;5052248;28;20074;-65
2023/09/22 11:37:56;;;;;;;11.13;5.13;;;;;;;16.41;89.33;100016.84;5049748;28;20036;-65
2023/09/22 11:40:44;;;;;;;81.57;48.00;;;;;;;16.47;91.30;100009.22;5055250;28;20183;-67
2023/09/22 11:43:32;;;;;;;30.70;19.23;;;;;;;16.48;89.10;100021.84;5068649;28;20052;-65
2023/09/22 11:46:25;;;;;;;42.55;24.77;;;;;;;16.52;90.25;100020.03;5052128;28;20052;-65
2023/09/22 11:49:14;;;;;;;37.65;21.08;;;;;;;16.49;88.27;100027.00;5059410;28;20059;-65
2023/09/22 11:52:03;;;;;;;77.90;45.17;;;;;;;16.49;89.72;100023.47;5036650;28;20134;-64
2023/09/22 11:54:51;;;;;;;114.53;68.20;;;;;;;16.54;94.48;100029.56;5034145;28;20076;-65
2023/09/22 11:57:41;;;;;;;70.95;44.95;;;;;;;16.58;96.16;100038.00;5045713;28;20096;-65
2023/09/22 12:00:29;;;;;;;13.13;7.50;;;;;;;16.48;89.13;100030.91;5034722;28;20052;-64
2023/09/22 12:03:18;;;;;;;2.60;1.75;;;;;;;16.47;86.24;100040.28;5039988;28;20049;-66
2023/09/22 12:06:06;;;;;;;3.55;1.45;;;;;;;16.53;85.63;100030.72;5051605;28;20052;-65
2023/09/22 12:08:56;;;;;;;3.22;1.60;;;;;;;16.64;87.16;100035.88;5035085;28;20151;-63
2023/09/22 12:11:45;;;;;;;21.02;11.60;;;;;;;16.78;87.47;100020.78;5037687;28;20132;-64
2023/09/22 12:14:33;;;;;;;71.20;41.67;;;;;;;16.93;91.46;100015.88;5036746;28;20049;-65
2023/09/22 12:17:21;;;;;;;160.13;98.38;;;;;;;17.12;98.08;100024.53;5036371;28;20049;-65
2023/09/22 12:20:10;;;;;;;119.20;72.05;;;;;;;17.19;97.57;100030.31;5006871;28;20077;-64
2023/09/22 12:22:59;;;;;;;88.68;52.65;;;;;;;17.22;97.23;100037.13;5032448;28;20132;-63
2023/09/22 12:25:47;;;;;;;121.20;74.10;;;;;;;17.20;93.95;100031.97;5018478;28;20053;-62
2023/09/22 12:28:36;;;;;;;125.88;78.00;;;;;;;17.18;93.82;100039.75;5042306;28;20052;-64
2023/09/22 12:31:24;;;;;;;7.82;3.50;;;;;;;17.15;86.10;100040.41;5040834;28;20060;-64
2023/09/22 12:34:13;;;;;;;6.00;2.40;;;;;;;17.06;83.89;100031.38;5058227;28;20057;-65
2023/09/22 12:37:02;;;;;;;3.70;1.77;;;;;;;16.94;80.88;100043.09;5041620;28;20049;-64
2023/09/22 12:39:50;;;;;;;5.22;1.92;;;;;;;16.85;79.43;100042.31;5040704;28;20049;-65
2023/09/22 12:42:39;;;;;;;9.70;4.88;;;;;;;16.85;83.62;100038.75;5023752;28;20525;-64
2023/09/22 12:45:27;;;;;;;16.33;9.57;;;;;;;16.86;83.25;100051.38;5028655;28;20174;-65
2023/09/22 12:48:15;;;;;;;53.35;33.38;;;;;;;16.91;93.34;100038.25;4990542;28;20057;-65
2023/09/22 12:51:03;;;;;;;21.95;14.20;;;;;;;16.87;88.83;100040.03;5066628;28;20056;-64
2023/09/22 12:53:51;;;;;;;45.70;25.15;;;;;;;16.85;88.64;100047.81;5095744;28;20141;-64
2023/09/22 12:56:39;;;;;;;60.08;34.03;;;;;;;16.87;89.82;100040.03;5095242;28;20189;-65
2023/09/22 12:59:27;;;;;;;46.17;25.67;;;;;;;16.94;91.08;100034.84;5085983;28;20044;-64
2023/09/22 13:02:15;;;;;;;33.47;19.90;;;;;;;16.92;90.15;100041.81;5074500;28;20044;-65
2023/09/22 13:05:03;;;;;;;30.45;19.70;;;;;;;16.95;90.01;100041.94;5087023;28;20052;-64